Langley Air Force Base
KLFI : now visible

Airfield :











YOU CAN JOIN US ON...

 
LOGIN :

Register | Disclaimer

   EN    FR    IT 

 









Legend :    VFR   Marginal VFR   IFR   Intensive IFR   Very Intensive IFR
Visi :
Ceiling :
>= 8 km
>= 3000ft
5 to 8 km
1000 to 3000 ft
1500m to 5 km
500 to 1000 ft
800 to 1500m
200 to 500 ft
< 800m
< 200 ft
Symbols :   Thunderstorms  Fog  Heavy snow  Heavy precipitations  Wind > 20 kt






- Airport Elevation : 11 ft


KLFI - Langley Air Force Base

CURRENT METAR :
  • 261556Z 10009KT 1/2SM R26/3000V4000FT FG VV003 11/11 A2989 RMK AO2A CIG 002 RWY08 SLP128 T01100110 $

EXPIRED METARs :
  • 261521Z 09006KT 1/8SM R26/2200V2800FT BR VV002 11/11 A2990 RMK AO2A SLP132 $
  • 261456Z 11005KT 1/8SM R26/1600V2000FT BR VV001 11/11 A2990 RMK AO2A SLP132 T01080108 51012 $
  • 261356Z 03004KT 1/16SM R26/1200FT FG VV001 10/10 A2990 RMK AO2A SLP132 T01020102 $

TAF AMD TAF KLFI
Valid from the 26 at 14:00 until the 27 at 16:00 UTC


261415Z 2614/2716 VRB06KT 0400 FG VV001 QNH2980INS
BECMG 2622/2623 11006KT 1600 BR OVC001 QNH2968INS
BECMG 2700/2701 14009KT 6000 -SHRA BR OVC001 QNH2964INS
BECMG 2703/2704 19012KT 8000 -SHRA BR BKN007 QNH2963INS
BECMG 2707/2708 28018KT 9000 -RA BKN020 QNH2961INS
BECMG 2708/2709 27015KT 9999 NSW SCT050 QNH2961INS
BECMG 2714/2715 29020G30KT 9999 SKC QNH2980INS TX13/2617Z TN07/2710Z



MET'MAP, your aeronautical weather chart ! - Copyright ORBIFLY December 2007 - Disclaimer

ORBIFLY MET'MAP TEAM :

Programming & Development : Alexandra Zaïnal
Concept & original design : Baudouin d'Aumeries
Assistance for programming : Marc-Olivier Méhu
Technical & hardware support : Manuel Goepfert

Contact : metmap@orbifly.com




SOURCES & CREDITS :

   NOAA       Earth
Advisory